Time;durP1;ratioP1;P1;durP2;ratioP2;P2;SDS_P1;SDS_P2;PMS_P1;PMS_P2;Temp;Humidity;BMP_temperature;BMP_pressure;BME280_temperature;BME280_humidity;BME280_pressure;Samples;Min_cycle;Max_cycle;Signal;HPM_P1;HPM_P2
2024/04/02 00:00:07;;;;;;;9.40;9.10;;;11.10;1.00;;;;;;5019960;28;20186;-53
2024/04/02 00:02:32;;;;;;;9.60;9.20;;;11.10;1.00;;;;;;5020511;28;20213;-51
2024/04/02 00:04:58;;;;;;;9.80;9.40;;;11.10;1.00;;;;;;5020591;28;20895;-48
2024/04/02 00:07:24;;;;;;;9.20;8.90;;;11.20;1.00;;;;;;5020724;28;20190;-51
2024/04/02 00:09:49;;;;;;;9.60;9.30;;;11.20;1.00;;;;;;5021061;28;20973;-46
2024/04/02 00:12:15;;;;;;;9.60;9.20;;;11.20;1.00;;;;;;5020500;28;20182;-51
2024/04/02 00:14:41;;;;;;;9.80;9.40;;;11.20;1.00;;;;;;5020930;28;20240;-51
2024/04/02 00:17:06;;;;;;;9.50;9.10;;;11.20;1.00;;;;;;5020546;28;20186;-52
2024/04/02 00:19:32;;;;;;;9.07;8.77;;;11.10;1.00;;;;;;5020239;28;20218;-47
2024/04/02 00:21:58;;;;;;;9.43;9.07;;;11.20;1.00;;;;;;5020537;28;20293;-53
2024/04/02 00:24:24;;;;;;;9.37;9.03;;;11.20;1.00;;;;;;5019816;28;20190;-48
2024/04/02 00:26:49;;;;;;;9.60;9.20;;;11.30;1.00;;;;;;5019684;28;20422;-53
2024/04/02 00:29:15;;;;;;;9.70;9.30;;;11.20;1.00;;;;;;5020581;28;20187;-49
2024/04/02 00:31:40;;;;;;;9.60;9.20;;;11.30;1.00;;;;;;5019532;28;20309;-51
2024/04/02 00:34:06;;;;;;;10.00;9.60;;;11.20;1.00;;;;;;5020342;28;20985;-51
2024/04/02 00:36:32;;;;;;;10.10;9.70;;;11.20;1.00;;;;;;5020145;28;20183;-52
2024/04/02 00:38:57;;;;;;;9.70;9.30;;;11.20;1.00;;;;;;5019857;28;20219;-49
2024/04/02 00:41:23;;;;;;;9.60;9.30;;;11.20;1.00;;;;;;5020198;28;20183;-47
2024/04/02 00:43:48;;;;;;;10.10;9.70;;;11.20;1.00;;;;;;5020687;28;20193;-49
2024/04/02 00:46:14;;;;;;;10.00;9.60;;;11.00;1.00;;;;;;5020182;28;20222;-53
2024/04/02 00:48:40;;;;;;;9.63;9.27;;;11.00;1.00;;;;;;5020527;28;20187;-53
2024/04/02 00:51:06;;;;;;;9.63;9.30;;;11.00;1.00;;;;;;5020507;28;20230;-52
2024/04/02 00:53:31;;;;;;;9.97;9.57;;;11.00;1.00;;;;;;5019565;28;20357;-49
2024/04/02 00:55:57;;;;;;;9.63;9.33;;;10.90;1.00;;;;;;5020119;28;20421;-54
2024/04/02 00:58:25;;;;;;;9.50;9.20;;;10.80;1.00;;;;;;5019848;28;20213;-52
2024/04/02 01:00:50;;;;;;;9.03;8.73;;;10.80;1.00;;;;;;5020305;28;20482;-50
2024/04/02 01:03:16;;;;;;;9.50;9.13;;;10.70;1.00;;;;;;5019962;28;21244;-46
2024/04/02 01:05:42;;;;;;;10.03;9.63;;;10.70;1.00;;;;;;5020348;28;20206;-41
2024/04/02 01:08:11;;;;;;;10.00;9.60;;;10.70;1.00;;;;;;5020299;28;20190;-37
2024/04/02 01:10:37;;;;;;;9.80;9.40;;;10.60;1.00;;;;;;5020048;28;20799;-38
2024/04/02 01:13:03;;;;;;;9.60;9.30;;;10.60;1.00;;;;;;5020485;28;20418;-40
2024/04/02 01:15:29;;;;;;;9.70;9.30;;;10.50;1.00;;;;;;5019927;28;20435;-38
2024/04/02 01:17:55;;;;;;;9.73;9.43;;;10.60;1.00;;;;;;5020308;28;20237;-38
2024/04/02 01:20:21;;;;;;;9.33;8.93;;;10.50;1.00;;;;;;5019800;28;20254;-38
2024/04/02 01:22:47;;;;;;;9.13;8.83;;;10.50;1.00;;;;;;5019472;28;20187;-38
2024/04/02 01:25:12;;;;;;;10.30;9.70;;;10.40;1.00;;;;;;5017933;28;20484;-38
2024/04/02 01:27:38;;;;;;;9.20;8.90;;;10.40;1.00;;;;;;5019559;28;20190;-40
2024/04/02 01:30:04;;;;;;;9.63;9.30;;;10.30;1.00;;;;;;5020042;28;20186;-40
2024/04/02 01:32:30;;;;;;;9.67;9.27;;;10.30;1.00;;;;;;5019852;28;20187;-43
2024/04/02 01:34:58;;;;;;;9.77;9.37;;;10.30;1.00;;;;;;5019590;28;20429;-40
2024/04/02 01:37:24;;;;;;;9.90;9.50;;;10.30;1.00;;;;;;5019378;28;20209;-38
2024/04/02 01:39:49;;;;;;;9.80;9.40;;;10.20;1.00;;;;;;5020190;28;20429;-38
2024/04/02 01:42:15;;;;;;;9.73;9.33;;;10.20;1.00;;;;;;5019366;28;20194;-38
2024/04/02 01:44:41;;;;;;;10.07;9.67;;;10.20;1.00;;;;;;5018792;28;20225;-39
2024/04/02 01:47:06;;;;;;;10.07;9.67;;;10.30;1.00;;;;;;5019159;28;20183;-39
2024/04/02 01:49:32;;;;;;;9.60;9.20;;;10.30;1.00;;;;;;5019512;28;20244;-38
2024/04/02 01:51:57;;;;;;;9.87;9.47;;;10.30;1.00;;;;;;5023450;28;20187;-39
2024/04/02 01:54:23;;;;;;;9.40;9.00;;;10.30;1.00;;;;;;5021439;28;20194;-41
2024/04/02 01:56:48;;;;;;;9.77;9.27;;;10.40;1.00;;;;;;5023096;28;20201;-39
2024/04/02 01:59:14;;;;;;;9.67;9.27;;;10.40;1.00;;;;;;5021174;28;20194;-41
2024/04/02 02:01:40;;;;;;;9.53;9.20;;;10.30;1.00;;;;;;5023394;28;20194;-38
2024/04/02 02:04:05;;;;;;;9.80;9.40;;;10.30;1.00;;;;;;5022677;28;20226;-52
2024/04/02 02:06:31;;;;;;;9.47;9.07;;;10.30;1.00;;;;;;5022695;28;20210;-38
2024/04/02 02:08:57;;;;;;;9.90;9.50;;;10.30;1.00;;;;;;5023158;28;21004;-44
2024/04/02 02:11:22;;;;;;;10.13;9.63;;;10.40;1.00;;;;;;5022427;28;20190;-40
2024/04/02 02:13:48;;;;;;;10.00;9.60;;;10.40;1.00;;;;;;5020893;28;20182;-42
2024/04/02 02:16:13;;;;;;;10.00;9.60;;;10.40;1.00;;;;;;5022565;28;20205;-40
2024/04/02 02:18:39;;;;;;;10.10;9.70;;;10.40;1.00;;;;;;5022699;28;20674;-38
2024/04/02 02:21:05;;;;;;;9.37;9.03;;;10.40;1.00;;;;;;5022417;28;20232;-40
2024/04/02 02:23:30;;;;;;;9.30;8.90;;;10.40;1.00;;;;;;5022215;28;20198;-38
2024/04/02 02:25:56;;;;;;;9.83;9.43;;;10.50;1.00;;;;;;5022254;28;20214;-39
2024/04/02 02:28:22;;;;;;;9.90;9.50;;;10.50;1.00;;;;;;5022245;28;20214;-40
2024/04/02 02:30:49;;;;;;;9.20;8.80;;;10.50;1.00;;;;;;5022386;28;20996;-40
2024/04/02 02:33:14;;;;;;;9.50;9.10;;;10.50;1.00;;;;;;5021861;28;20190;-39
2024/04/02 02:35:40;;;;;;;9.93;9.33;;;10.50;1.00;;;;;;5022146;28;20413;-40
2024/04/02 02:38:06;;;;;;;9.70;9.30;;;10.60;1.00;;;;;;5021424;28;20664;-39
2024/04/02 02:40:32;;;;;;;10.10;9.70;;;10.60;1.00;;;;;;5022098;28;20265;-38
2024/04/02 02:42:58;;;;;;;10.20;9.70;;;10.70;1.00;;;;;;5022213;28;20191;-39
2024/04/02 02:45:24;;;;;;;10.00;9.40;;;10.80;1.00;;;;;;5022290;28;20917;-44
2024/04/02 02:47:50;;;;;;;9.90;9.30;;;10.70;1.00;;;;;;5022030;28;20417;-39
2024/04/02 02:50:16;;;;;;;9.60;9.20;;;10.70;1.00;;;;;;5023356;28;20452;-41
2024/04/02 02:52:43;;;;;;;9.63;9.23;;;10.70;1.00;;;;;;5022104;28;20413;-45
2024/04/02 02:55:09;;;;;;;9.57;9.17;;;10.80;1.00;;;;;;5021836;28;20201;-40
2024/04/02 02:57:34;;;;;;;9.60;9.20;;;10.80;1.00;;;;;;5022089;28;20422;-39
2024/04/02 03:00:00;;;;;;;8.73;8.43;;;10.80;1.00;;;;;;5021198;28;20654;-43
2024/04/02 03:02:26;;;;;;;9.10;8.77;;;10.80;1.00;;;;;;5021616;28;20175;-40
2024/04/02 03:04:51;;;;;;;9.27;8.87;;;10.80;1.00;;;;;;5021714;28;20225;-38
2024/04/02 03:07:17;;;;;;;9.60;9.20;;;10.80;1.00;;;;;;5020841;28;20755;-38
2024/04/02 03:09:43;;;;;;;9.80;9.40;;;10.80;1.00;;;;;;5020876;28;20182;-41
2024/04/02 03:12:09;;;;;;;9.40;9.00;;;10.90;1.00;;;;;;5021888;28;20198;-38
2024/04/02 03:14:35;;;;;;;9.50;9.10;;;10.90;1.00;;;;;;5021761;28;20421;-42
2024/04/02 03:17:01;;;;;;;9.40;9.00;;;11.00;1.00;;;;;;5021606;28;20962;-39
2024/04/02 03:19:28;;;;;;;9.03;8.63;;;11.10;1.00;;;;;;5021182;28;20345;-41
2024/04/02 03:21:53;;;;;;;8.93;8.53;;;11.10;1.00;;;;;;5021892;28;20681;-38
2024/04/02 03:24:19;;;;;;;9.87;9.27;;;11.10;1.00;;;;;;5021166;28;20413;-39
2024/04/02 03:26:46;;;;;;;9.43;9.03;;;11.10;1.00;;;;;;5021528;28;20209;-41
2024/04/02 03:29:12;;;;;;;9.83;9.43;;;11.10;1.00;;;;;;5020865;28;20186;-39
2024/04/02 03:31:38;;;;;;;9.50;9.10;;;11.10;1.00;;;;;;5020869;28;20425;-39
2024/04/02 03:34:03;;;;;;;9.17;8.83;;;11.00;1.00;;;;;;5021862;28;20336;-39
2024/04/02 03:36:29;;;;;;;10.00;9.60;;;11.10;1.00;;;;;;5021169;28;21030;-38
2024/04/02 03:38:54;;;;;;;9.47;9.07;;;11.20;1.00;;;;;;5020407;28;20273;-39
2024/04/02 03:41:20;;;;;;;9.60;9.10;;;11.10;1.00;;;;;;5019083;28;20197;-41
2024/04/02 03:43:46;;;;;;;9.17;8.87;;;11.10;1.00;;;;;;5021280;28;20524;-41
2024/04/02 03:46:12;;;;;;;9.47;9.07;;;11.10;1.00;;;;;;5020789;28;20305;-42
2024/04/02 03:48:38;;;;;;;9.50;9.10;;;11.10;1.00;;;;;;5020612;28;20288;-41
2024/04/02 03:51:04;;;;;;;9.90;9.50;;;11.20;1.00;;;;;;5021195;28;21463;-38
2024/04/02 03:53:30;;;;;;;9.57;9.23;;;11.30;1.00;;;;;;5020240;28;20437;-39
2024/04/02 03:56:00;;;;;;;9.73;9.33;;;11.30;1.00;;;;;;5021193;28;20432;-41
2024/04/02 03:58:27;;;;;;;9.40;9.00;;;11.30;1.00;;;;;;5020543;28;20925;-41
2024/04/02 04:00:56;;;;;;;9.60;9.20;;;11.30;1.00;;;;;;5018670;28;21224;-40
2024/04/02 04:03:25;;;;;;;9.77;9.37;;;11.30;1.00;;;;;;5020595;28;20413;-41
2024/04/02 04:05:58;;;;;;;9.00;8.50;;;11.30;1.00;;;;;;5020640;28;20963;-39
2024/04/02 04:08:23;;;;;;;9.40;9.00;;;11.30;1.00;;;;;;5020611;28;20958;-47
2024/04/02 04:10:49;;;;;;;9.10;8.70;;;11.30;1.00;;;;;;5020743;28;20433;-38
2024/04/02 04:13:15;;;;;;;9.10;8.80;;;11.30;1.00;;;;;;5019915;28;20421;-39
2024/04/02 04:15:40;;;;;;;9.43;9.03;;;11.30;1.00;;;;;;5020631;28;20217;-39
2024/04/02 04:18:06;;;;;;;8.93;8.60;;;11.30;1.00;;;;;;5019138;28;20701;-39
2024/04/02 04:20:34;;;;;;;9.70;9.20;;;11.30;1.00;;;;;;5020128;28;20190;-54
2024/04/02 04:22:59;;;;;;;9.60;9.10;;;11.20;1.00;;;;;;5019901;28;20217;-52
2024/04/02 04:25:25;;;;;;;9.03;8.63;;;11.20;1.00;;;;;;5020190;28;20555;-52
2024/04/02 04:27:51;;;;;;;9.87;9.47;;;11.20;1.00;;;;;;5020534;28;20550;-52
2024/04/02 04:30:16;;;;;;;9.40;9.00;;;11.20;1.00;;;;;;5019599;28;20178;-52
2024/04/02 04:32:42;;;;;;;10.00;9.60;;;11.30;1.00;;;;;;5020406;28;20239;-52
2024/04/02 04:35:08;;;;;;;9.30;8.90;;;11.20;1.00;;;;;;5019782;28;20205;-54
2024/04/02 04:37:33;;;;;;;9.93;9.47;;;11.20;1.00;;;;;;5019147;28;20197;-50
2024/04/02 04:39:59;;;;;;;9.70;9.20;;;11.20;1.00;;;;;;5018825;28;20190;-53
2024/04/02 04:42:25;;;;;;;9.53;9.03;;;11.10;1.00;;;;;;5020139;28;20193;-50
2024/04/02 04:44:51;;;;;;;10.47;9.87;;;11.10;1.00;;;;;;5020314;28;20456;-53
2024/04/02 04:47:17;;;;;;;10.60;10.10;;;11.00;1.00;;;;;;5019888;28;20416;-45
2024/04/02 04:49:42;;;;;;;9.60;9.20;;;11.10;1.00;;;;;;5019692;28;20604;-49
2024/04/02 04:52:08;;;;;;;9.60;9.10;;;11.10;1.00;;;;;;5018656;28;20178;-54
2024/04/02 04:54:35;;;;;;;10.17;9.63;;;11.00;1.00;;;;;;5019288;28;20228;-52
2024/04/02 04:57:00;;;;;;;10.37;9.87;;;10.90;1.00;;;;;;5018620;28;20793;-52
2024/04/02 04:59:26;;;;;;;9.87;9.37;;;10.90;1.00;;;;;;5019317;28;20413;-49
2024/04/02 05:01:52;;;;;;;9.93;9.53;;;10.90;1.00;;;;;;5018207;28;20437;-42
2024/04/02 05:04:17;;;;;;;9.67;9.27;;;10.90;1.00;;;;;;5018409;28;20198;-39
2024/04/02 05:06:43;;;;;;;9.43;9.03;;;10.80;1.00;;;;;;5019392;28;20206;-40
2024/04/02 05:09:11;;;;;;;9.73;9.33;;;10.80;1.00;;;;;;5019470;28;20183;-51
2024/04/02 05:11:37;;;;;;;10.00;9.50;;;10.80;1.00;;;;;;5018283;28;20435;-52
2024/04/02 05:14:03;;;;;;;10.17;9.67;;;10.70;1.00;;;;;;5018051;28;20837;-55
2024/04/02 05:16:29;;;;;;;10.00;9.60;;;10.70;1.00;;;;;;5019246;28;20512;-51
2024/04/02 05:18:54;;;;;;;9.90;9.50;;;10.80;1.00;;;;;;5019066;28;20839;-51
2024/04/02 05:21:20;;;;;;;9.80;9.40;;;10.80;1.00;;;;;;5019817;28;20439;-47
2024/04/02 05:23:46;;;;;;;10.00;9.40;;;10.80;1.00;;;;;;5019263;28;20198;-54
2024/04/02 05:26:11;;;;;;;10.27;9.67;;;10.70;1.00;;;;;;5023010;28;20225;-49
2024/04/02 05:28:37;;;;;;;9.40;8.90;;;10.70;1.00;;;;;;5021681;28;20190;-50
2024/04/02 05:31:03;;;;;;;9.80;9.40;;;10.80;1.00;;;;;;5023303;28;20675;-47
2024/04/02 05:33:28;;;;;;;9.80;9.30;;;10.80;1.00;;;;;;5022836;28;20183;-50
2024/04/02 05:35:55;;;;;;;9.40;9.00;;;10.80;1.00;;;;;;5024004;28;20190;-53
2024/04/02 05:38:21;;;;;;;10.07;9.57;;;10.80;1.00;;;;;;5022977;28;20696;-54
2024/04/02 05:40:47;;;;;;;10.00;9.60;;;10.80;1.00;;;;;;5022922;28;20956;-52
2024/04/02 05:43:12;;;;;;;9.90;9.50;;;10.90;1.00;;;;;;5022909;28;20478;-49
2024/04/02 05:45:39;;;;;;;9.83;9.43;;;10.80;1.00;;;;;;5022245;28;20812;-51
2024/04/02 05:48:05;;;;;;;9.50;9.10;;;10.80;1.00;;;;;;5023005;28;20229;-52
2024/04/02 05:50:31;;;;;;;9.53;9.13;;;10.80;1.00;;;;;;5022388;28;20556;-54
2024/04/02 05:52:56;;;;;;;9.90;9.50;;;10.90;1.00;;;;;;5021839;28;20483;-52
2024/04/02 05:55:22;;;;;;;9.50;9.10;;;10.90;1.00;;;;;;5022103;28;20195;-47
2024/04/02 05:57:47;;;;;;;9.77;9.37;;;11.00;1.00;;;;;;5021798;28;20636;-38
2024/04/02 06:00:13;;;;;;;10.00;9.50;;;11.00;1.00;;;;;;5022206;28;20190;-41
2024/04/02 06:02:39;;;;;;;9.67;9.27;;;11.10;1.00;;;;;;5021739;28;20723;-39
2024/04/02 06:05:05;;;;;;;9.93;9.43;;;11.10;1.00;;;;;;5022098;28;21063;-40
2024/04/02 06:07:31;;;;;;;10.40;9.60;;;11.20;1.00;;;;;;5020852;28;20284;-40
2024/04/02 06:09:56;;;;;;;9.30;8.90;;;11.30;1.00;;;;;;5021279;28;20186;-39
2024/04/02 06:12:22;;;;;;;9.60;9.10;;;11.30;1.00;;;;;;5022312;28;20524;-41
2024/04/02 06:14:47;;;;;;;9.10;8.70;;;11.30;1.00;;;;;;5021825;28;20442;-39
2024/04/02 06:17:13;;;;;;;10.10;9.50;;;11.40;1.00;;;;;;5021997;28;20194;-46
2024/04/02 06:19:39;;;;;;;10.37;9.80;;;11.40;1.00;;;;;;5021458;28;20242;-40
2024/04/02 06:22:05;;;;;;;9.67;9.27;;;11.50;1.00;;;;;;5022663;28;20633;-43
2024/04/02 06:24:30;;;;;;;9.67;9.17;;;11.60;1.00;;;;;;5022206;28;20182;-45
2024/04/02 06:26:56;;;;;;;9.67;9.20;;;11.50;1.00;;;;;;5021876;28;20550;-39
2024/04/02 06:29:22;;;;;;;9.30;8.90;;;11.60;1.00;;;;;;5021754;28;20556;-43
2024/04/02 06:31:47;;;;;;;9.27;8.87;;;11.60;1.00;;;;;;5021438;28;20217;-39
2024/04/02 06:34:13;;;;;;;9.63;9.23;;;11.60;1.00;;;;;;5020987;28;20190;-39
2024/04/02 06:36:39;;;;;;;9.73;9.33;;;11.60;1.00;;;;;;5019923;28;20195;-50
2024/04/02 06:39:04;;;;;;;10.03;9.53;;;11.70;1.00;;;;;;5021664;28;20416;-49
2024/04/02 06:41:30;;;;;;;9.70;9.20;;;11.70;1.00;;;;;;5021832;28;20244;-49
2024/04/02 06:43:56;;;;;;;10.20;9.50;;;11.80;1.00;;;;;;5021460;28;20179;-45
2024/04/02 06:46:24;;;;;;;9.60;9.20;;;11.90;1.00;;;;;;5021639;28;20269;-51
2024/04/02 06:48:50;;;;;;;10.20;9.60;;;12.00;1.00;;;;;;5021089;28;20179;-52
2024/04/02 06:51:16;;;;;;;9.50;9.10;;;12.10;1.00;;;;;;5021486;28;20914;-51
2024/04/02 06:53:42;;;;;;;10.10;9.60;;;12.20;1.00;;;;;;5021137;28;20805;-44
2024/04/02 06:56:08;;;;;;;9.63;9.23;;;12.40;1.00;;;;;;5021076;28;20509;-54
2024/04/02 06:58:33;;;;;;;9.80;9.40;;;12.50;1.00;;;;;;5020929;28;20247;-52
2024/04/02 07:01:00;;;;;;;9.80;9.40;;;12.50;1.00;;;;;;5021625;28;20235;-48
2024/04/02 07:03:26;;;;;;;9.53;9.13;;;12.70;1.00;;;;;;5020890;28;20237;-52
2024/04/02 07:05:53;;;;;;;9.63;9.23;;;12.60;1.00;;;;;;5020824;28;21133;-52
2024/04/02 07:08:24;;;;;;;9.73;9.23;;;12.70;1.00;;;;;;5021108;28;20799;-50
2024/04/02 07:11:05;;;;;;;10.10;9.60;;;12.70;1.00;;;;;;5019623;28;20445;-55
2024/04/02 07:13:32;;;;;;;9.73;9.33;;;12.80;1.00;;;;;;5020736;28;20421;-50
2024/04/02 07:15:57;;;;;;;9.70;9.30;;;12.80;1.00;;;;;;5020880;28;20507;-55
2024/04/02 07:18:23;;;;;;;9.77;9.37;;;13.00;1.00;;;;;;5020173;28;20889;-51
2024/04/02 07:21:03;;;;;;;9.80;9.40;;;12.90;1.00;;;;;;5020811;28;20194;-46
2024/04/02 07:23:29;;;;;;;10.00;9.60;;;12.90;1.00;;;;;;5020788;28;20678;-46
2024/04/02 07:25:54;;;;;;;9.70;9.30;;;12.90;1.00;;;;;;5020562;28;20579;-39
2024/04/02 07:28:21;;;;;;;9.97;9.57;;;12.90;1.00;;;;;;5020506;28;20286;-40
2024/04/02 07:30:46;;;;;;;9.70;9.30;;;12.80;1.00;;;;;;5020638;28;20675;-40
2024/04/02 07:33:13;;;;;;;10.00;9.60;;;12.70;1.00;;;;;;5020548;28;20739;-46
2024/04/02 07:35:39;;;;;;;10.03;9.60;;;12.80;1.00;;;;;;5018509;28;20207;-43
2024/04/02 07:38:05;;;;;;;10.13;9.73;;;12.90;1.00;;;;;;5020720;28;20429;-41
2024/04/02 07:40:31;;;;;;;10.17;9.77;;;12.90;1.00;;;;;;5021051;28;20425;-39
2024/04/02 07:42:58;;;;;;;9.77;9.27;;;12.80;1.00;;;;;;5020142;28;20551;-40
2024/04/02 07:45:24;;;;;;;9.90;9.50;;;12.80;1.00;;;;;;5020460;28;20210;-41
2024/04/02 07:47:50;;;;;;;10.07;9.47;;;12.80;1.00;;;;;;5019250;28;20576;-39
2024/04/02 07:50:16;;;;;;;9.93;9.53;;;12.90;1.00;;;;;;5020178;28;20778;-40
2024/04/02 07:52:41;;;;;;;10.00;9.50;;;12.80;1.00;;;;;;5020145;28;20194;-42
2024/04/02 07:55:07;;;;;;;10.03;9.50;;;12.90;1.00;;;;;;5020250;28;20590;-40
2024/04/02 07:57:33;;;;;;;9.70;9.30;;;13.10;1.00;;;;;;5019765;28;20206;-41
2024/04/02 07:59:58;;;;;;;9.30;8.90;;;13.20;1.00;;;;;;5020009;28;20186;-39
2024/04/02 08:02:24;;;;;;;10.00;9.50;;;13.30;1.00;;;;;;5020057;28;20190;-40
2024/04/02 08:04:52;;;;;;;9.97;9.57;;;13.40;1.00;;;;;;5018781;28;20214;-42
2024/04/02 08:07:18;;;;;;;9.57;9.17;;;13.50;1.00;;;;;;5018804;28;20269;-39
2024/04/02 08:09:47;;;;;;;9.37;9.07;;;13.50;1.00;;;;;;5020340;28;20970;-51
2024/04/02 08:12:13;;;;;;;9.30;8.90;;;13.60;1.00;;;;;;5019505;28;20435;-56
2024/04/02 08:14:39;;;;;;;9.80;9.40;;;13.70;1.00;;;;;;5019706;28;20421;-51
2024/04/02 08:17:05;;;;;;;10.00;9.50;;;13.80;1.00;;;;;;5020211;28;20433;-54
2024/04/02 08:19:30;;;;;;;9.40;9.07;;;13.80;1.00;;;;;;5019486;28;20479;-48
2024/04/02 08:21:56;;;;;;;8.60;8.30;;;13.80;1.00;;;;;;5019845;28;20277;-53
2024/04/02 08:24:24;;;;;;;8.87;8.47;;;13.90;99.90;;;;;;5019753;28;20926;-56
2024/04/02 08:26:49;;;;;;;9.13;8.73;;;14.10;99.90;;;;;;5019545;28;20512;-39
2024/04/02 08:29:15;;;;;;;9.60;9.20;;;14.10;99.90;;;;;;5019707;28;20508;-45
2024/04/02 08:31:41;;;;;;;8.93;8.63;;;14.30;99.90;;;;;;5019928;28;20265;-39
2024/04/02 08:34:06;;;;;;;9.73;9.20;;;14.20;99.90;;;;;;5019866;28;20722;-41
2024/04/02 08:36:32;;;;;;;9.30;8.70;;;14.10;99.90;;;;;;5018761;28;20698;-47
2024/04/02 08:38:57;;;;;;;9.17;8.77;;;13.90;99.90;;;;;;5019431;28;20503;-41
2024/04/02 08:41:26;;;;;;;9.27;8.77;;;14.00;99.90;;;;;;5019208;28;20178;-44
2024/04/02 08:43:56;;;;;;;9.10;8.73;;;14.00;99.90;;;;;;5019656;28;20663;-40
2024/04/02 08:46:26;;;;;;;9.60;9.10;;;14.00;99.90;;;;;;5019597;28;20461;-39
2024/04/02 08:48:56;;;;;;;9.40;9.00;;;13.90;99.90;;;;;;5019806;28;20409;-46
2024/04/02 08:51:22;;;;;;;9.70;9.30;;;14.10;99.90;;;;;;5018184;28;20421;-38
2024/04/02 08:53:48;;;;;;;9.17;8.80;;;14.20;99.90;;;;;;5019520;28;20417;-41
2024/04/02 08:56:17;;;;;;;9.20;8.90;;;14.40;99.90;;;;;;5019276;28;20424;-41
2024/04/02 08:58:45;;;;;;;9.77;9.30;;;14.90;99.90;;;;;;5019893;28;20907;-43
2024/04/02 09:01:13;;;;;;;9.20;8.70;;;15.60;99.90;;;;;;5023405;28;20413;-42
2024/04/02 09:03:38;;;;;;;9.70;9.30;;;15.70;99.90;;;;;;5023355;28;20963;-44
2024/04/02 09:06:04;;;;;;;9.30;8.90;;;15.70;99.90;;;;;;5020478;28;20469;-44
2024/04/02 09:08:30;;;;;;;9.07;8.67;;;15.40;99.90;;;;;;5022426;28;20182;-45
2024/04/02 09:10:56;;;;;;;9.47;8.97;;;14.90;99.90;;;;;;5023084;28;20193;-42
2024/04/02 09:13:21;;;;;;;9.50;9.10;;;14.60;99.90;;;;;;5022703;28;20799;-42
2024/04/02 09:15:47;;;;;;;9.80;9.40;;;14.50;99.90;;;;;;5023175;28;20190;-41
2024/04/02 09:18:16;;;;;;;9.50;9.10;;;14.60;99.90;;;;;;5023210;28;20234;-42
2024/04/02 09:20:41;;;;;;;9.20;8.80;;;14.70;99.90;;;;;;5022579;28;20848;-41
2024/04/02 09:23:08;;;;;;;9.80;9.20;;;14.70;99.90;;;;;;5023383;28;20881;-38
2024/04/02 09:25:34;;;;;;;9.30;8.80;;;14.90;99.90;;;;;;5023102;28;20498;-38
2024/04/02 09:27:59;;;;;;;9.03;8.63;;;14.90;99.90;;;;;;5023559;28;20422;-42
2024/04/02 09:30:26;;;;;;;9.10;8.70;;;15.30;99.90;;;;;;5022595;28;20196;-40
2024/04/02 09:32:53;;;;;;;9.57;9.17;;;16.00;99.90;;;;;;5022994;28;20734;-40
2024/04/02 09:35:37;;;;;;;9.50;9.10;;;16.40;99.90;;;;;;5021770;28;20427;-39
2024/04/02 09:38:05;;;;;;;9.30;8.60;;;17.10;99.90;;;;;;5022685;28;20977;-42
2024/04/02 09:40:32;;;;;;;9.50;9.00;;;17.10;99.90;;;;;;5023312;28;20428;-43
2024/04/02 09:42:59;;;;;;;9.00;8.60;;;17.00;99.90;;;;;;5023599;28;20467;-40
2024/04/02 09:45:28;;;;;;;8.70;8.20;;;16.80;99.90;;;;;;5022927;28;20472;-42
2024/04/02 09:47:54;;;;;;;9.30;8.80;;;16.80;99.90;;;;;;5022604;28;20515;-41
2024/04/02 09:50:21;;;;;;;9.60;9.20;;;17.40;99.90;;;;;;5023173;28;20982;-44
2024/04/02 09:52:48;;;;;;;9.20;8.80;;;17.70;99.90;;;;;;5022367;28;20266;-42
2024/04/02 09:55:14;;;;;;;9.23;8.83;;;17.90;99.90;;;;;;5022213;28;20417;-43
2024/04/02 09:57:41;;;;;;;9.50;9.00;;;18.10;99.90;;;;;;5021479;28;20437;-47
2024/04/02 10:00:08;;;;;;;9.80;9.30;;;18.40;99.90;;;;;;5021457;28;20441;-40
2024/04/02 10:02:35;;;;;;;9.50;9.00;;;18.70;99.90;;;;;;5022818;28;20421;-42
2024/04/02 10:05:00;;;;;;;9.70;9.30;;;18.90;99.90;;;;;;5021637;28;20449;-40
2024/04/02 10:07:30;;;;;;;9.60;9.20;;;18.80;99.90;;;;;;5021443;28;20577;-44
2024/04/02 10:10:00;;;;;;;8.90;8.60;;;18.70;99.90;;;;;;5021340;28;20178;-40
2024/04/02 10:12:36;;;;;;;8.83;8.53;;;18.50;99.90;;;;;;5020859;28;20421;-40
2024/04/02 10:15:11;;;;;;;9.80;9.40;;;18.30;99.90;;;;;;5021059;28;21319;-42
2024/04/02 10:17:38;;;;;;;9.53;9.13;;;18.40;99.90;;;;;;5019929;28;20869;-43
2024/04/02 10:20:39;;;;;;;9.00;8.60;;;18.00;99.90;;;;;;5020070;28;20428;-45
2024/04/02 10:23:08;;;;;;;9.30;8.90;;;18.30;99.90;;;;;;5027355;28;20421;-44
2024/04/02 10:25:37;;;;;;;9.00;8.60;;;18.40;99.90;;;;;;5019038;28;20975;-42
2024/04/02 10:28:03;;;;;;;8.90;8.50;;;18.10;99.90;;;;;;5020669;28;20417;-42
2024/04/02 10:30:29;;;;;;;8.87;8.47;;;18.10;99.90;;;;;;5020830;28;20406;-39
2024/04/02 10:32:56;;;;;;;9.30;9.00;;;18.50;99.90;;;;;;5021318;28;20810;-43
2024/04/02 10:35:26;;;;;;;9.80;9.40;;;18.70;99.90;;;;;;5020779;28;20524;-42
2024/04/02 10:37:55;;;;;;;9.50;9.10;;;18.60;99.90;;;;;;5021593;28;20428;-42
2024/04/02 10:40:21;;;;;;;16.33;9.07;;;18.50;99.90;;;;;;5019960;28;20593;-41
2024/04/02 10:42:48;;;;;;;9.30;8.90;;;18.10;99.90;;;;;;5020302;28;20440;-42
2024/04/02 10:45:17;;;;;;;9.33;9.03;;;17.80;99.90;;;;;;5021708;28;20947;-42
2024/04/02 10:47:47;;;;;;;8.70;8.40;;;18.20;99.90;;;;;;5021176;28;20413;-43
2024/04/02 10:50:13;;;;;;;9.30;8.90;;;18.70;99.90;;;;;;5021280;28;21038;-41
2024/04/02 10:52:39;;;;;;;8.67;8.37;;;19.30;99.90;;;;;;5021043;28;20873;-43
2024/04/02 10:55:05;;;;;;;10.17;9.67;;;18.50;99.90;;;;;;5020716;28;20436;-42
2024/04/02 10:57:33;;;;;;;9.50;8.90;;;17.80;99.90;;;;;;5020470;28;20433;-39
2024/04/02 11:00:00;;;;;;;9.80;9.30;;;17.90;99.90;;;;;;5021102;28;20431;-46
2024/04/02 11:02:27;;;;;;;9.90;9.40;;;18.00;99.90;;;;;;5021004;28;20421;-41
2024/04/02 11:04:53;;;;;;;9.80;9.40;;;18.10;99.90;;;;;;5020969;28;20409;-39
2024/04/02 11:07:19;;;;;;;10.40;10.00;;;17.70;99.90;;;;;;5021362;28;20703;-45
2024/04/02 11:09:45;;;;;;;9.50;9.10;;;17.90;99.90;;;;;;5021197;28;20448;-44
2024/04/02 11:12:10;;;;;;;10.43;10.03;;;17.90;99.90;;;;;;5020758;28;20637;-44
2024/04/02 11:14:36;;;;;;;10.33;9.77;;;18.00;99.90;;;;;;5020823;28;20178;-42
2024/04/02 11:17:03;;;;;;;9.30;8.80;;;17.80;99.90;;;;;;5020547;28;20521;-43
2024/04/02 11:19:29;;;;;;;9.10;8.70;;;18.00;99.90;;;;;;5020497;28;20234;-40
2024/04/02 11:27:27;;;;;;;9.60;9.20;;;19.00;99.90;;;;;;5020314;28;20449;-43
2024/04/02 11:29:54;;;;;;;9.50;9.07;;;19.90;99.90;;;;;;5020515;28;20765;-43
2024/04/02 11:32:23;;;;;;;9.83;9.53;;;20.50;99.90;;;;;;5020867;28;20196;-42
2024/04/02 11:35:02;;;;;;;9.73;9.33;;;20.80;99.90;;;;;;5020463;28;20432;-39
2024/04/02 11:37:29;;;;;;;9.70;9.30;;;20.40;99.90;;;;;;5020514;28;20790;-42
2024/04/02 11:39:55;;;;;;;8.43;8.13;;;20.40;99.90;;;;;;5019932;28;20907;-42
2024/04/02 11:42:22;;;;;;;10.00;9.60;;;20.70;99.90;;;;;;5020295;28;20475;-44
2024/04/02 11:44:49;;;;;;;9.20;8.90;;;20.00;99.90;;;;;;5020398;28;20421;-38
2024/04/02 11:47:15;;;;;;;10.00;9.60;;;19.70;99.90;;;;;;5020048;28;20881;-39
2024/04/02 11:49:41;;;;;;;8.83;8.50;;;19.20;99.90;;;;;;5020306;28;20425;-41
2024/04/02 11:52:07;;;;;;;9.30;9.00;;;19.20;99.90;;;;;;5020748;28;20179;-41
2024/04/02 11:54:33;;;;;;;9.53;9.13;;;19.70;99.90;;;;;;5019056;28;20997;-48
2024/04/02 12:00:06;;;;;;;9.50;9.10;;;20.00;99.90;;;;;;5019595;28;20420;-43
2024/04/02 12:02:32;;;;;;;9.40;9.10;;;19.20;99.90;;;;;;5019707;28;20468;-43
2024/04/02 12:04:57;;;;;;;8.83;8.43;;;20.00;99.90;;;;;;5019733;28;20422;-41
2024/04/02 12:07:24;;;;;;;9.77;9.37;;;19.90;99.90;;;;;;5019899;28;20203;-41
2024/04/02 12:09:55;;;;;;;9.23;8.93;;;20.40;99.90;;;;;;5019771;28;20336;-40
2024/04/02 12:12:21;;;;;;;9.20;8.90;;;20.60;99.90;;;;;;5020005;28;20401;-41
2024/04/02 12:14:47;;;;;;;8.40;8.10;;;21.20;99.90;;;;;;5019623;28;20451;-44
2024/04/02 12:17:12;;;;;;;8.20;7.90;;;20.80;99.90;;;;;;5019779;28;20421;-42
2024/04/02 12:19:38;;;;;;;8.33;8.03;;;20.90;99.90;;;;;;5019441;28;20281;-41
2024/04/02 12:22:03;;;;;;;10.03;9.67;;;21.00;99.90;;;;;;5018320;28;20198;-40
2024/04/02 12:24:29;;;;;;;9.20;8.90;;;20.20;99.90;;;;;;5018802;28;20182;-38
2024/04/02 12:26:55;;;;;;;8.57;8.27;;;19.50;99.90;;;;;;5019899;28;20217;-38
2024/04/02 12:29:20;;;;;;;9.03;8.73;;;18.90;99.90;;;;;;5019287;28;20210;-44
2024/04/02 12:31:46;;;;;;;8.77;8.17;;;18.70;99.90;;;;;;5019317;28;20187;-42
2024/04/02 12:34:12;;;;;;;9.00;8.50;;;18.20;99.90;;;;;;5017644;28;20182;-42
2024/04/02 12:36:38;;;;;;;8.80;8.50;;;17.70;99.90;;;;;;5019575;28;20198;-43
2024/04/02 12:39:03;;;;;;;9.10;8.77;;;17.60;99.90;;;;;;5019657;28;20194;-41
2024/04/02 12:41:29;;;;;;;8.70;8.40;;;18.00;99.90;;;;;;5018729;28;21269;-46
2024/04/02 12:43:56;;;;;;;8.80;8.50;;;18.50;99.90;;;;;;5018595;28;20256;-39
2024/04/02 12:46:22;;;;;;;10.43;9.77;;;18.50;99.90;;;;;;5019354;28;20282;-45
2024/04/02 12:48:47;;;;;;;10.50;10.10;;;17.50;99.90;;;;;;5018653;28;20433;-41
2024/04/02 12:51:13;;;;;;;12.30;11.80;;;15.40;99.90;;;;;;5015789;28;20433;-38
2024/04/02 12:53:38;;;;;;;12.20;11.70;;;14.80;99.90;;;;;;5017984;28;20664;-43